Time;durP1;ratioP1;P1;durP2;ratioP2;P2;SDS_P1;SDS_P2;PMS_P1;PMS_P2;Temp;Humidity;BMP_temperature;BMP_pressure;BME280_temperature;BME280_humidity;BME280_pressure;Samples;Min_cycle;Max_cycle;Signal;HPM_P1;HPM_P2
2022/11/18 00:01:15;;;;;;;;;1.00;1.00;;;;;10.71;76.64;99201.97;5078741;28;45466;-59
2022/11/18 00:03:41;;;;;;;;;2.00;1.00;;;;;10.71;77.17;99212.59;5078823;28;45350;-64
2022/11/18 00:06:11;;;;;;;;;1.00;1.00;;;;;10.69;77.37;99212.72;5078848;27;45516;-59
2022/11/18 00:08:36;;;;;;;;;0.00;0.00;;;;;10.69;77.08;99211.88;5078261;28;46251;-63
2022/11/18 00:14:17;;;;;;;;;1.00;1.00;;;;;10.67;77.09;99217.28;5073667;28;45419;-59
2022/11/18 00:14:21;;;;;;;;;0.00;0.00;;;;;10.69;77.23;99225.16;5078329;28;45297;-62
2022/11/18 00:17:00;;;;;;;;;1.00;1.00;;;;;10.66;77.24;99230.69;5078374;28;45445;-64
2022/11/18 00:19:29;;;;;;;;;2.00;1.00;;;;;10.63;77.68;99235.28;5078328;27;46125;-66
2022/11/18 00:21:54;;;;;;;;;0.00;0.00;;;;;10.62;77.62;99235.41;5078320;27;45417;-66
2022/11/18 00:24:20;;;;;;;;;1.67;1.67;;;;;10.59;78.19;99233.84;5040634;28;45237;-66
2022/11/18 00:26:45;;;;;;;;;2.67;1.00;;;;;10.63;77.58;99237.97;5061627;28;45625;-65
2022/11/18 00:29:11;;;;;;;;;1.00;1.00;;;;;10.59;77.66;99247.16;5078115;28;46058;-62
2022/11/18 00:31:37;;;;;;;;;1.67;1.00;;;;;10.59;77.60;99249.81;5077347;28;45379;-64
2022/11/18 00:34:04;;;;;;;;;1.67;1.67;;;;;10.58;77.84;99244.59;5078892;28;45431;-64
2022/11/18 00:36:29;;;;;;;;;1.00;1.00;;;;;10.57;78.48;99267.69;5077739;28;45531;-66
2022/11/18 00:38:55;;;;;;;;;1.00;1.00;;;;;10.56;78.18;99275.78;5077588;27;46128;-61
2022/11/18 00:41:20;;;;;;;;;1.00;0.67;;;;;10.52;78.20;99271.66;5076339;27;45524;-66
2022/11/18 00:43:46;;;;;;;;;1.67;1.00;;;;;10.58;77.40;99287.16;5077498;27;45637;-63
2022/11/18 00:46:12;;;;;;;;;3.00;0.00;;;;;10.54;77.79;99281.19;5076737;27;45722;-61
2022/11/18 00:48:39;;;;;;;;;1.67;1.00;;;;;10.56;77.77;99281.09;5078060;27;45982;-64
2022/11/18 00:51:17;;;;;;;;;0.33;0.33;;;;;10.55;77.30;99280.25;5058498;28;45413;-65
2022/11/18 00:53:43;;;;;;;;;2.67;0.00;;;;;10.55;77.55;99284.72;5061579;27;45485;-57
2022/11/18 00:56:09;;;;;;;;;0.00;0.00;;;;;10.50;78.01;99285.06;5077786;27;45621;-60
2022/11/18 00:58:35;;;;;;;;;0.67;0.67;;;;;10.49;78.07;99291.34;5061985;27;45919;-56
2022/11/18 01:01:01;;;;;;;;;2.00;1.00;;;;;10.44;77.09;99288.19;5076149;27;45479;-65
2022/11/18 01:03:27;;;;;;;;;1.00;1.00;;;;;10.45;77.90;99292.56;5077908;28;45467;-65
2022/11/18 01:05:53;;;;;;;;;0.33;0.33;;;;;10.43;77.36;99291.81;5078293;27;45577;-62
2022/11/18 01:08:19;;;;;;;;;0.00;0.00;;;;;10.43;77.53;99299.81;5076485;27;46114;-59
2022/11/18 01:10:46;;;;;;;;;0.00;0.00;;;;;10.43;77.68;99302.47;5068433;27;45501;-58
2022/11/18 01:13:18;;;;;;;;;1.33;0.00;;;;;10.41;77.98;99304.34;5058391;27;45512;-59
2022/11/18 01:15:51;;;;;;;;;1.00;0.67;;;;;10.41;77.79;99304.34;5080650;27;45390;-59
2022/11/18 01:18:20;;;;;;;;;0.00;0.00;;;;;10.36;77.86;99306.53;5085242;27;46806;-57
2022/11/18 01:20:46;;;;;;;;;1.00;0.00;;;;;10.40;78.50;99313.28;5077949;27;45347;-61
2022/11/18 01:23:12;;;;;;;;;0.00;0.00;;;;;10.34;77.64;99308.47;5060730;27;45261;-64
2022/11/18 01:25:39;;;;;;;;;0.50;0.50;;;;;10.38;78.43;99315.22;5076179;27;45534;-63
2022/11/18 01:28:04;;;;;;;;;0.00;0.00;;;;;10.37;77.91;99318.00;5074603;27;45317;-65
2022/11/18 01:30:33;;;;;;;;;0.00;0.00;;;;;10.40;77.79;99318.63;5069742;27;45271;-63
2022/11/18 01:32:58;;;;;;;;;0.00;0.00;;;;;10.37;77.84;99318.84;5077675;28;45267;-59
2022/11/18 01:35:24;;;;;;;;;1.00;1.00;;;;;10.34;77.94;99319.09;5051961;28;45319;-62
2022/11/18 01:37:49;;;;;;;;;1.00;0.75;;;;;10.34;77.97;99324.41;5076646;27;47179;-59
2022/11/18 01:40:14;;;;;;;;;1.00;0.00;;;;;10.38;77.94;99325.00;5058331;28;45267;-62
2022/11/18 01:42:40;;;;;;;;;0.00;0.00;;;;;10.38;77.71;99331.16;5076175;27;45582;-58
2022/11/18 01:45:08;;;;;;;;;1.00;1.00;;;;;10.39;77.93;99332.03;5070933;27;45231;-62
2022/11/18 01:47:48;;;;;;;;;0.00;0.00;;;;;10.39;78.20;99327.56;5060409;27;46106;-64
2022/11/18 01:50:15;;;;;;;;;0.25;0.25;;;;;10.32;78.16;99331.66;5076005;27;45329;-58
2022/11/18 01:52:41;;;;;;;;;0.50;0.50;;;;;10.34;78.38;99335.03;5058275;28;45374;-60
2022/11/18 01:55:17;;;;;;;;;0.00;0.00;;;;;10.38;77.72;99347.13;5075712;27;45252;-65
2022/11/18 01:57:46;;;;;;;;;0.00;0.00;;;;;10.38;77.88;99340.97;5071622;27;46491;-61
2022/11/18 02:00:12;;;;;;;;;1.25;0.00;;;;;10.39;78.14;99353.28;5075842;27;45507;-58
2022/11/18 02:02:38;;;;;;;;;0.50;0.50;;;;;10.37;78.00;99353.41;5057756;27;45279;-61
2022/11/18 02:05:05;;;;;;;;;0.00;0.00;;;;;10.34;78.33;99348.31;5076951;27;45337;-65
2022/11/18 02:07:35;;;;;;;;;0.00;0.00;;;;;10.36;78.11;99359.69;5075910;27;47044;-59
2022/11/18 02:10:04;;;;;;;;;0.00;0.00;;;;;10.33;78.38;99350.13;5071328;27;45323;-62
2022/11/18 02:12:29;;;;;;;;;0.00;0.00;;;;;10.35;78.08;99360.66;5072144;27;45321;-60
2022/11/18 02:14:55;;;;;;;;;0.00;0.00;;;;;10.34;78.26;99362.47;5076230;27;45720;-59
2022/11/18 02:17:54;;;;;;;;;1.00;0.00;;;;;10.33;78.65;99366.06;5065614;27;46164;-63
2022/11/18 02:20:29;;;;;;;;;0.67;0.67;;;;;10.28;78.65;99354.06;5073988;27;45640;-63
2022/11/18 02:23:13;;;;;;;;;0.00;0.00;;;;;10.33;77.62;99370.53;5057037;28;45370;-60
2022/11/18 02:26:09;;;;;;;;;1.00;0.00;;;;;10.29;78.54;99369.94;5060733;27;45342;-64
2022/11/18 02:28:55;;;;;;;;;0.25;0.00;;;;;10.27;78.17;99373.63;5056759;28;45374;-57
2022/11/18 02:31:32;;;;;;;;;0.00;0.00;;;;;10.28;77.80;99381.50;5077996;27;45513;-62
2022/11/18 02:34:10;;;;;;;;;0.00;0.00;;;;;10.28;78.46;99383.31;5080662;27;45327;-65
2022/11/18 02:36:54;;;;;;;;;0.00;0.00;;;;;10.28;78.84;99388.63;5079657;27;45177;-64
2022/11/18 02:39:33;;;;;;;;;1.00;0.00;;;;;10.28;78.64;99385.97;5061168;28;45519;-67
2022/11/18 02:42:03;;;;;;;;;1.00;1.00;;;;;10.25;78.12;99386.19;5078624;27;45484;-58
2022/11/18 02:44:30;;;;;;;;;0.00;0.00;;;;;10.25;78.06;99388.84;5079259;27;45469;-54
2022/11/18 02:47:02;;;;;;;;;0.00;0.00;;;;;10.16;78.98;99373.59;5080786;27;45725;-58
2022/11/18 02:49:45;;;;;;;;;0.00;0.00;;;;;10.23;78.71;99404.06;5078406;27;45478;-55
2022/11/18 02:52:13;;;;;;;;;0.00;0.00;;;;;10.18;78.54;99387.59;5078768;27;45288;-62
2022/11/18 02:54:41;;;;;;;;;0.00;0.00;;;;;10.20;77.90;99396.28;5057340;28;45331;-62
2022/11/18 02:57:08;;;;;;;;;0.00;0.00;;;;;10.18;78.17;99398.22;5058291;27;45892;-61
2022/11/18 02:59:33;;;;;;;;;2.00;1.00;;;;;10.14;78.58;99399.38;5073189;27;46124;-65
2022/11/18 03:01:59;;;;;;;;;0.00;0.00;;;;;10.17;79.04;99401.84;5077701;27;45433;-64
2022/11/18 03:04:26;;;;;;;;;0.00;0.00;;;;;10.15;78.45;99406.38;5061035;28;45656;-61
2022/11/18 03:07:19;;;;;;;;;0.00;0.00;;;;;10.14;77.98;99407.34;5059167;27;45327;-64
2022/11/18 03:09:49;;;;;;;;;0.00;0.00;;;;;10.12;77.62;99406.63;5078834;27;46512;-64
2022/11/18 03:12:42;;;;;;;;;0.00;0.00;;;;;10.13;77.58;99411.81;5060642;28;45272;-63
2022/11/18 03:15:16;;;;;;;;;0.00;0.00;;;;;10.10;77.98;99414.72;5079710;27;45448;-58
2022/11/18 03:17:44;;;;;;;;;0.00;0.00;;;;;10.11;78.48;99418.22;5078457;27;45806;-64
2022/11/18 03:20:19;;;;;;;;;0.75;0.00;;;;;10.11;78.16;99429.69;5078344;27;45539;-58
2022/11/18 03:22:54;;;;;;;;;0.00;0.00;;;;;10.10;78.43;99419.19;5044247;28;45323;-57
2022/11/18 03:25:22;;;;;;;;;0.00;0.00;;;;;10.10;78.11;99427.16;5074252;27;45323;-58
2022/11/18 03:28:05;;;;;;;;;0.00;0.00;;;;;10.07;78.42;99416.75;5063659;27;45516;-61
2022/11/18 03:30:35;;;;;;;;;0.00;0.00;;;;;10.07;78.79;99422.06;5063202;28;45426;-59
2022/11/18 03:33:20;;;;;;;;;0.00;0.00;;;;;10.04;78.28;99423.13;5079212;27;45353;-56
2022/11/18 03:35:50;;;;;;;;;0.00;0.00;;;;;10.02;78.35;99423.22;5060083;27;45371;-59
2022/11/18 03:38:22;;;;;;;;;0.33;0.33;;;;;10.03;78.29;99435.56;5071536;27;45208;-57
2022/11/18 03:40:56;;;;;;;;;1.00;0.00;;;;;10.04;78.83;99434.59;5078536;27;46392;-66
2022/11/18 03:43:26;;;;;;;;;0.00;0.00;;;;;10.00;77.91;99438.41;5066765;28;45489;-62
2022/11/18 03:45:59;;;;;;;;;0.00;0.00;;;;;10.00;79.25;99442.88;5077445;27;45418;-66
2022/11/18 03:48:31;;;;;;;;;1.25;0.00;;;;;10.01;78.98;99450.75;5077556;27;45191;-64
2022/11/18 03:51:08;;;;;;;;;0.00;0.00;;;;;9.99;78.71;99457.97;5061462;27;46932;-63
2022/11/18 03:53:39;;;;;;;;;3.00;0.00;;;;;10.00;78.88;99465.00;5067599;27;45334;-60
2022/11/18 03:56:15;;;;;;;;;0.00;0.00;;;;;10.01;79.02;99466.69;5077926;27;45534;-63
2022/11/18 03:58:52;;;;;;;;;1.00;0.00;;;;;9.99;79.23;99465.94;5073669;27;45593;-62
2022/11/18 04:01:23;;;;;;;;;1.50;0.00;;;;;9.92;78.79;99451.44;5067532;27;45486;-60
2022/11/18 04:03:49;;;;;;;;;0.00;0.00;;;;;9.99;79.44;99467.75;5060556;28;45452;-63
2022/11/18 04:06:32;;;;;;;;;0.00;0.00;;;;;10.00;78.99;99475.59;5077833;27;45441;-62
2022/11/18 04:09:05;;;;;;;;;0.00;0.00;;;;;9.99;79.19;99479.22;5060602;28;45501;-61
2022/11/18 04:14:25;;;;;;;;;1.33;0.00;;;;;9.98;79.30;99480.19;5078338;27;45228;-65
2022/11/18 04:16:54;;;;;;;;;0.00;0.00;;;;;9.97;78.86;99498.91;5059887;28;45358;-65
2022/11/18 04:19:19;;;;;;;;;1.00;0.00;;;;;9.99;78.84;99495.16;5078697;28;45800;-63
2022/11/18 04:21:47;;;;;;;;;1.00;1.00;;;;;9.95;79.94;99487.53;5077464;27;46041;-63
2022/11/18 04:24:13;;;;;;;;;0.00;0.00;;;;;10.04;78.90;99509.00;5075300;27;45445;-62
2022/11/18 04:26:38;;;;;;;;;0.00;0.00;;;;;10.04;78.97;99503.69;5081509;27;45675;-63
2022/11/18 04:29:03;;;;;;;;;0.00;0.00;;;;;10.04;79.44;99502.81;5061878;27;45559;-65
2022/11/18 04:31:29;;;;;;;;;0.00;0.00;;;;;9.98;79.18;99504.09;5077349;27;45543;-63
2022/11/18 04:33:54;;;;;;;;;0.00;0.00;;;;;10.02;79.53;99521.50;5079048;27;45332;-56
2022/11/18 04:36:19;;;;;;;;;0.00;0.00;;;;;10.02;78.50;99523.31;5077252;27;45173;-56
2022/11/18 04:38:45;;;;;;;;;0.33;0.00;;;;;10.02;78.74;99529.47;5063607;28;45355;-61
2022/11/18 04:41:10;;;;;;;;;0.00;0.00;;;;;10.01;78.81;99527.78;5078128;27;45610;-60
2022/11/18 04:43:36;;;;;;;;;0.00;0.00;;;;;10.00;79.23;99538.50;5076391;27;45366;-61
2022/11/18 04:46:02;;;;;;;;;1.00;0.00;;;;;9.93;78.87;99526.63;5076573;27;45507;-57
2022/11/18 04:48:27;;;;;;;;;0.00;0.00;;;;;9.90;79.38;99527.72;5063543;27;45276;-59
2022/11/18 04:50:55;;;;;;;;;1.00;0.00;;;;;9.92;78.97;99539.06;5076188;27;45547;-56
2022/11/18 04:53:21;;;;;;;;;0.00;0.00;;;;;9.81;79.26;99527.50;5060012;28;45371;-53
2022/11/18 04:55:46;;;;;;;;;1.00;1.00;;;;;9.90;78.68;99540.97;5079090;27;45486;-62
2022/11/18 04:58:12;;;;;;;;;1.25;0.25;;;;;9.87;78.69;99538.53;5076153;27;45523;-62
2022/11/18 05:00:37;;;;;;;;;0.00;0.00;;;;;9.87;79.60;99540.31;5076596;27;46327;-64
2022/11/18 05:03:02;;;;;;;;;1.00;1.00;;;;;9.82;78.75;99532.69;5077485;27;45357;-63
2022/11/18 05:05:28;;;;;;;;;1.25;0.25;;;;;9.90;79.04;99543.66;5081465;27;45314;-63
2022/11/18 05:07:53;;;;;;;;;1.00;1.00;;;;;9.82;78.98;99523.88;5056363;27;45601;-59
2022/11/18 05:10:18;;;;;;;;;1.75;0.00;;;;;9.86;79.01;99547.44;5076686;27;47464;-66
2022/11/18 05:12:51;;;;;;;;;1.00;0.00;;;;;9.80;78.67;99541.72;5077472;28;45352;-64
2022/11/18 05:15:18;;;;;;;;;1.50;0.00;;;;;9.84;79.11;99554.66;5078431;27;45437;-62
2022/11/18 05:17:44;;;;;;;;;0.00;0.00;;;;;9.79;79.44;99553.31;5076589;27;45389;-60
2022/11/18 05:20:10;;;;;;;;;3.00;1.00;;;;;9.77;79.71;99552.56;5075779;27;45267;-63
2022/11/18 05:22:35;;;;;;;;;0.00;0.00;;;;;9.79;78.84;99555.97;5077588;28;45216;-59
2022/11/18 05:25:01;;;;;;;;;1.67;0.00;;;;;9.76;79.17;99567.63;5070931;27;45390;-61
2022/11/18 05:27:26;;;;;;;;;0.00;0.00;;;;;9.74;79.19;99564.22;5079583;27;45267;-59
2022/11/18 05:29:52;;;;;;;;;0.00;0.00;;;;;9.74;79.33;99558.91;5059185;28;46723;-63
2022/11/18 05:32:17;;;;;;;;;2.00;0.50;;;;;9.70;79.27;99562.75;5080386;27;45417;-59
2022/11/18 05:34:43;;;;;;;;;1.00;0.50;;;;;9.71;79.12;99569.75;5073374;27;45394;-62
2022/11/18 05:37:08;;;;;;;;;1.50;1.50;;;;;9.70;79.06;99565.41;5077071;27;45585;-61
2022/11/18 05:39:34;;;;;;;;;3.50;2.00;;;;;9.60;79.79;99564.31;5076840;27;45384;-56
2022/11/18 05:44:44;;;;;;;;;1.50;1.00;;;;;9.63;78.63;99575.56;5077512;27;45426;-56
2022/11/18 05:47:10;;;;;;;;;5.00;1.00;;;;;9.65;78.92;99575.50;5075360;27;45435;-66
2022/11/18 05:49:35;;;;;;;;;1.00;1.00;;;;;9.67;78.92;99584.19;5076742;27;45944;-60
2022/11/18 05:52:00;;;;;;;;;0.50;0.25;;;;;9.68;79.13;99588.56;5075157;27;46085;-62
2022/11/18 05:54:27;;;;;;;;;0.00;0.00;;;;;9.66;78.82;99587.81;5079229;27;45461;-66
2022/11/18 05:56:52;;;;;;;;;1.25;0.25;;;;;9.68;79.59;99596.53;5076550;27;45311;-58
2022/11/18 05:59:17;;;;;;;;;0.00;0.00;;;;;9.68;79.03;99591.22;5077296;27;46031;-60
2022/11/18 06:01:55;;;;;;;;;2.00;0.00;;;;;9.70;78.66;99594.59;5074523;27;45243;-64
2022/11/18 06:04:24;;;;;;;;;1.00;0.00;;;;;9.61;79.03;99589.91;5071897;27;45394;-60
2022/11/18 06:06:52;;;;;;;;;1.75;1.00;;;;;9.67;78.94;99600.13;5079597;27;45504;-65
2022/11/18 06:09:22;;;;;;;;;3.50;0.00;;;;;9.59;78.62;99584.72;5081077;27;45457;-66
2022/11/18 06:11:53;;;;;;;;;2.00;0.75;;;;;9.67;79.00;99600.13;5059087;28;45597;-66
2022/11/18 06:14:23;;;;;;;;;1.00;1.00;;;;;9.63;79.00;99620.69;5063421;28;45362;-64
2022/11/18 06:16:55;;;;;;;;;5.00;1.00;;;;;9.63;78.69;99619.84;5051775;28;45434;-62
2022/11/18 06:19:21;;;;;;;;;3.00;0.00;;;;;9.61;78.69;99616.47;5076259;27;46243;-62
2022/11/18 06:21:48;;;;;;;;;1.00;1.00;;;;;9.57;79.03;99623.78;5075825;27;45298;-63
2022/11/18 06:24:14;;;;;;;;;2.00;1.00;;;;;9.49;78.94;99612.81;5038180;28;45426;-59
2022/11/18 06:26:40;;;;;;;;;1.33;1.33;;;;;9.58;78.66;99638.75;5067192;27;45463;-67
2022/11/18 06:29:09;;;;;;;;;2.25;1.00;;;;;9.58;79.28;99641.41;5076850;28;46385;-65
2022/11/18 06:31:34;;;;;;;;;3.00;0.00;;;;;9.59;79.31;99634.28;5053076;28;45363;-62
2022/11/18 06:34:00;;;;;;;;;1.00;1.00;;;;;9.58;79.17;99651.19;5075967;27;45576;-60
2022/11/18 06:36:25;;;;;;;;;2.00;1.00;;;;;9.57;78.77;99639.72;5072463;28;45473;-57
2022/11/18 06:38:51;;;;;;;;;0.50;0.50;;;;;9.56;78.53;99640.66;5067154;27;45413;-58
2022/11/18 06:41:16;;;;;;;;;5.00;0.25;;;;;9.59;78.55;99652.88;5089752;27;45983;-58
2022/11/18 06:43:45;;;;;;;;;1.00;1.00;;;;;9.58;78.53;99659.16;5082643;27;46394;-59
2022/11/18 06:48:58;;;;;;;;;5.00;1.00;;;;;9.59;78.19;99661.69;5062078;27;45691;-63
2022/11/18 06:51:24;;;;;;;;;5.25;1.00;;;;;9.57;77.97;99676.03;5038300;28;45307;-60
2022/11/18 06:53:50;;;;;;;;;1.75;1.75;;;;;9.57;78.73;99678.69;5056660;27;45509;-57
2022/11/18 06:56:17;;;;;;;;;3.75;2.00;;;;;9.57;78.73;99673.38;5059585;27;45725;-67
2022/11/18 06:58:43;;;;;;;;;1.00;1.00;;;;;9.55;78.55;99681.44;5076123;27;46147;-60
2022/11/18 07:01:17;;;;;;;;;3.00;1.00;;;;;9.54;77.63;99674.44;5076542;28;45417;-68
2022/11/18 07:03:44;;;;;;;;;1.00;1.00;;;;;9.55;78.74;99685.91;5076013;27;45425;-62
2022/11/18 07:06:11;;;;;;;;;2.00;2.00;;;;;9.51;78.30;99684.41;5076104;28;45469;-57
2022/11/18 07:08:39;;;;;;;;;3.00;1.00;;;;;9.57;78.39;99694.59;5077450;27;47152;-57
2022/11/18 07:11:07;;;;;;;;;6.75;1.25;;;;;9.55;77.77;99701.81;5075252;27;45606;-57
2022/11/18 07:13:33;;;;;;;;;3.00;1.00;;;;;9.53;78.49;99707.25;5056063;28;45401;-60
2022/11/18 07:16:06;;;;;;;;;3.00;1.00;;;;;9.54;77.91;99719.56;5063819;27;46061;-58
2022/11/18 07:18:36;;;;;;;;;1.00;1.00;;;;;9.49;78.22;99715.47;5065747;28;45262;-58
2022/11/18 07:21:09;;;;;;;;;3.00;1.75;;;;;9.43;78.10;99706.97;5077211;27;45478;-58
2022/11/18 07:23:35;;;;;;;;;1.00;1.00;;;;;9.46;77.81;99719.19;5045465;28;45525;-60
2022/11/18 07:26:01;;;;;;;;;1.00;1.00;;;;;9.40;77.90;99714.31;5080938;28;45911;-63
2022/11/18 07:28:27;;;;;;;;;2.75;1.00;;;;;9.43;78.00;99728.22;5079433;27;45388;-63
2022/11/18 07:30:59;;;;;;;;;1.00;1.00;;;;;9.38;77.94;99717.06;5061305;28;45420;-61
2022/11/18 07:33:24;;;;;;;;;1.00;1.00;;;;;9.34;77.99;99720.84;5060780;27;45359;-58
2022/11/18 07:35:50;;;;;;;;;2.00;1.00;;;;;9.43;78.20;99740.63;5079379;28;45526;-60
2022/11/18 07:38:15;;;;;;;;;5.00;2.00;;;;;9.43;78.87;99753.91;5079123;28;45394;-58
2022/11/18 07:40:41;;;;;;;;;5.75;2.00;;;;;9.43;78.12;99752.09;5079403;28;45754;-61
2022/11/18 07:43:07;;;;;;;;;6.00;2.50;;;;;9.40;78.44;99760.25;5079454;28;45272;-57
2022/11/18 07:45:32;;;;;;;;;2.00;2.00;;;;;9.40;78.64;99752.31;5060749;28;45441;-57
2022/11/18 07:47:57;;;;;;;;;5.00;2.50;;;;;9.38;78.78;99748.91;5078509;27;45424;-58
2022/11/18 07:50:23;;;;;;;;;4.50;2.00;;;;;9.40;78.69;99765.56;5079901;27;45486;-55
2022/11/18 07:52:48;;;;;;;;;1.00;1.00;;;;;9.36;78.91;99761.38;5079198;27;45388;-54
2022/11/18 07:55:14;;;;;;;;;3.00;1.25;;;;;9.41;78.46;99771.72;5079498;28;45369;-58
2022/11/18 07:57:39;;;;;;;;;1.00;1.00;;;;;9.39;78.97;99766.53;5060739;28;46204;-61
2022/11/18 08:00:05;;;;;;;;;5.00;2.00;;;;;9.41;78.01;99761.13;5079075;28;45281;-61
2022/11/18 08:02:34;;;;;;;;;7.50;2.50;;;;;9.39;78.71;99770.97;5078775;27;45229;-57
2022/11/18 08:04:59;;;;;;;;;3.00;1.00;;;;;9.48;78.45;99780.13;5078763;27;45396;-58
2022/11/18 08:07:24;;;;;;;;;4.50;1.25;;;;;9.48;78.12;99785.44;5078216;28;45467;-60
2022/11/18 08:09:50;;;;;;;;;1.75;1.75;;;;;9.56;78.39;99786.66;5078619;28;47360;-58
2022/11/18 08:12:15;;;;;;;;;1.00;1.00;;;;;9.61;77.86;99781.03;5078878;28;45390;-59
2022/11/18 08:14:41;;;;;;;;;2.25;2.25;;;;;9.69;78.05;99778.75;5078764;28;45466;-59
2022/11/18 08:17:06;;;;;;;;;1.25;1.25;;;;;9.79;78.35;99784.31;5077742;27;45358;-66
2022/11/18 08:19:33;;;;;;;;;1.25;1.25;;;;;9.85;77.99;99787.41;5078137;28;45327;-61
2022/11/18 08:21:59;;;;;;;;;2.75;1.00;;;;;9.89;76.75;99794.22;5060185;28;45386;-65
2022/11/18 08:24:24;;;;;;;;;8.00;8.00;;;;;9.90;76.84;99795.09;5078258;28;45573;-62
2022/11/18 08:26:49;;;;;;;;;3.50;2.50;;;;;9.90;77.38;99790.63;5078282;27;46246;-55
2022/11/18 08:29:15;;;;;;;;;2.50;2.50;;;;;9.93;77.20;99798.41;5078206;28;45304;-60
2022/11/18 08:31:40;;;;;;;;;5.67;1.00;;;;;9.87;77.62;99788.16;5078475;27;45502;-59
2022/11/18 08:34:06;;;;;;;;;3.00;1.00;;;;;9.94;77.34;99799.25;5056815;28;45549;-61
2022/11/18 08:36:34;;;;;;;;;3.00;3.00;;;;;9.87;77.06;99793.47;5039793;28;46127;-62
2022/11/18 08:39:03;;;;;;;;;3.75;2.00;;;;;9.95;76.96;99801.78;5057385;28;45375;-60
2022/11/18 08:41:33;;;;;;;;;0.00;0.00;;;;;9.97;77.60;99804.34;5039487;28;45218;-61
2022/11/18 08:44:00;;;;;;;;;1.50;1.50;;;;;9.96;77.68;99798.19;5057711;28;45426;-60
2022/11/18 08:46:25;;;;;;;;;1.00;1.00;;;;;9.99;77.19;99791.81;5057117;28;45365;-66
2022/11/18 08:48:51;;;;;;;;;1.00;1.00;;;;;10.04;76.64;99795.88;5039500;28;45479;-61
2022/11/18 08:51:16;;;;;;;;;4.00;1.00;;;;;10.14;76.84;99808.53;5039517;28;45817;-58
2022/11/18 08:53:42;;;;;;;;;4.25;4.25;;;;;10.15;77.41;99813.75;5058092;28;45545;-62
2022/11/18 08:56:13;;;;;;;;;5.50;2.00;;;;;10.17;76.81;99819.84;5039837;28;46412;-60
2022/11/18 08:58:40;;;;;;;;;1.00;1.00;;;;;10.17;76.38;99814.50;5040108;28;45457;-57
2022/11/18 09:01:06;;;;;;;;;5.00;2.00;;;;;10.26;76.63;99821.03;5057789;28;45403;-66
2022/11/18 09:03:32;;;;;;;;;2.00;2.00;;;;;10.23;76.28;99813.28;5057955;28;45526;-60
2022/11/18 09:06:09;;;;;;;;;2.00;2.00;;;;;10.29;76.23;99821.69;5057776;28;46255;-58
2022/11/18 09:08:35;;;;;;;;;6.00;1.00;;;;;10.28;76.61;99824.44;5079636;27;45619;-60
2022/11/18 09:11:05;;;;;;;;;1.25;0.75;;;;;10.33;76.56;99833.81;5077063;27;45409;-58
2022/11/18 09:13:31;;;;;;;;;2.00;1.00;;;;;10.34;75.93;99824.91;5060177;27;45676;-58
2022/11/18 09:16:00;;;;;;;;;1.50;1.50;;;;;10.40;76.08;99834.25;5064746;27;45434;-60
2022/11/18 09:18:25;;;;;;;;;0.50;0.50;;;;;10.44;76.43;99827.78;5060502;27;45758;-57
2022/11/18 09:21:01;;;;;;;;;2.50;2.00;;;;;10.51;75.87;99830.88;5077232;27;45607;-60
2022/11/18 09:23:27;;;;;;;;;2.00;1.00;;;;;10.50;76.00;99830.00;5077553;27;45363;-57
2022/11/18 09:26:07;;;;;;;;;3.00;1.00;;;;;10.50;76.01;99830.00;5075976;27;46594;-61
2022/11/18 09:28:35;;;;;;;;;0.00;0.00;;;;;10.59;75.91;99840.03;5059218;28;45537;-58
2022/11/18 09:31:09;;;;;;;;;1.00;1.00;;;;;10.60;75.86;99847.06;5072040;27;45398;-57
2022/11/18 09:33:36;;;;;;;;;1.25;1.00;;;;;10.69;75.84;99850.06;5062634;28;45339;-58
2022/11/18 09:36:10;;;;;;;;;1.00;1.00;;;;;10.70;75.38;99833.13;5077055;28;47202;-58
2022/11/18 09:38:35;;;;;;;;;3.33;0.00;;;;;10.84;75.40;99844.53;5077146;27;45328;-59
2022/11/18 09:41:12;;;;;;;;;1.67;1.67;;;;;10.92;75.23;99842.16;5077155;28;45259;-60
2022/11/18 09:43:56;;;;;;;;;2.25;2.25;;;;;11.03;75.26;99849.41;5077434;28;45162;-58
2022/11/18 09:46:52;;;;;;;;;2.00;2.00;;;;;11.10;75.06;99848.03;5077149;27;45710;-59
2022/11/18 09:49:50;;;;;;;;;0.00;0.00;;;;;11.13;74.73;99831.84;5060296;28;45395;-58
2022/11/18 09:52:23;;;;;;;;;2.00;1.00;;;;;11.23;74.04;99846.22;5052652;27;45464;-58
2022/11/18 09:54:49;;;;;;;;;0.00;0.00;;;;;11.32;74.14;99841.19;5096880;27;45393;-58
2022/11/18 09:57:43;;;;;;;;;1.00;1.00;;;;;11.37;73.78;99853.22;5097810;27;45435;-59
2022/11/18 10:00:17;;;;;;;;;1.00;1.00;;;;;11.42;74.11;99851.06;5092071;27;45486;-59
2022/11/18 10:03:08;;;;;;;;;0.67;0.67;;;;;11.50;73.29;99839.88;5079515;27;45291;-58
2022/11/18 10:06:05;;;;;;;;;0.00;0.00;;;;;11.55;73.57;99852.88;5058937;28;45526;-58
2022/11/18 10:08:39;;;;;;;;;0.00;0.00;;;;;11.58;72.99;99850.81;5038048;28;47605;-57
2022/11/18 10:11:16;;;;;;;;;0.00;0.00;;;;;11.65;72.93;99856.56;5056512;28;45271;-56
2022/11/18 10:14:14;;;;;;;;;0.67;0.67;;;;;11.81;72.23;99858.03;5056707;28;45340;-58
2022/11/18 10:17:22;;;;;;;;;2.33;1.00;;;;;11.94;72.00;99862.47;5015777;28;46008;-63
2022/11/18 10:19:59;;;;;;;;;2.00;0.67;;;;;12.03;71.66;99861.81;5057069;28;45340;-58
2022/11/18 10:22:31;;;;;;;;;0.33;0.33;;;;;12.13;71.63;99862.84;5065159;28;45191;-61
2022/11/18 10:24:59;;;;;;;;;1.00;1.00;;;;;12.17;70.71;99864.31;5082416;27;45428;-62
2022/11/18 10:27:39;;;;;;;;;1.00;1.00;;;;;12.19;71.66;99849.03;5079405;27;45674;-62
2022/11/18 10:30:20;;;;;;;;;1.00;1.00;;;;;12.23;70.87;99853.16;5072196;27;45949;-63
2022/11/18 10:32:56;;;;;;;;;0.00;0.00;;;;;12.26;70.82;99852.13;5092391;27;45371;-63
2022/11/18 10:35:35;;;;;;;;;1.33;1.00;;;;;12.20;70.36;99858.75;5075972;28;45266;-63
2022/11/18 10:38:16;;;;;;;;;1.00;1.00;;;;;12.28;70.97;99853.69;5077363;27;45498;-59
2022/11/18 10:40:51;;;;;;;;;4.00;0.67;;;;;12.39;70.51;99859.09;5088308;27;47251;-57
2022/11/18 10:43:50;;;;;;;;;0.00;0.00;;;;;12.38;69.37;99861.88;5096893;27;45231;-61
2022/11/18 10:46:28;;;;;;;;;2.00;0.00;;;;;12.56;70.21;99859.63;5093571;27;45372;-57
2022/11/18 10:49:09;;;;;;;;;0.00;0.00;;;;;12.56;69.74;99868.47;5096855;27;45369;-61
2022/11/18 10:51:47;;;;;;;;;1.33;0.00;;;;;12.55;69.03;99857.91;5081075;27;45414;-60
2022/11/18 10:54:20;;;;;;;;;2.00;1.00;;;;;12.68;69.27;99869.34;5095215;27;45374;-62
2022/11/18 10:56:51;;;;;;;;;3.00;1.33;;;;;12.72;69.74;99870.81;5076376;27;45372;-62
2022/11/18 10:59:37;;;;;;;;;1.00;0.00;;;;;12.65;69.11;99867.78;5058415;28;45254;-60
2022/11/18 11:02:36;;;;;;;;;0.00;0.00;;;;;12.75;69.17;99867.91;5067759;28;45894;-61
2022/11/18 11:05:15;;;;;;;;;1.00;0.67;;;;;12.99;70.53;99867.84;5079421;27;45977;-62
2022/11/18 11:07:40;;;;;;;;;2.67;2.00;;;;;12.97;69.02;99859.09;5079357;27;45389;-62
2022/11/18 11:10:09;;;;;;;;;0.00;0.00;;;;;13.02;68.61;99866.75;5079294;28;45634;-60
2022/11/18 11:12:55;;;;;;;;;2.00;0.33;;;;;13.04;67.78;99871.03;5063324;27;45458;-66
2022/11/18 11:15:27;;;;;;;;;0.00;0.00;;;;;13.06;68.00;99873.56;5062057;28;45460;-61
2022/11/18 11:20:42;;;;;;;;;2.00;1.00;;;;;13.01;69.06;99865.91;5073715;27;45524;-64
2022/11/18 11:23:12;;;;;;;;;4.33;1.33;;;;;13.06;68.15;99878.91;5065325;28;46302;-65
2022/11/18 11:25:56;;;;;;;;;5.67;2.33;;;;;13.05;69.17;99872.72;5071376;27;46819;-63
2022/11/18 11:28:31;;;;;;;;;3.00;1.67;;;;;13.05;67.87;99863.84;5064927;27;45520;-61
2022/11/18 11:31:05;;;;;;;;;1.67;1.00;;;;;13.05;67.84;99872.72;5059804;28;45397;-62
2022/11/18 11:33:31;;;;;;;;;2.00;2.00;;;;;13.06;67.85;99885.09;5066411;28;45346;-66
2022/11/18 11:36:35;;;;;;;;;2.00;0.33;;;;;13.12;67.94;99873.06;5076877;28;45263;-64
2022/11/18 11:39:32;;;;;;;;;1.00;1.00;;;;;13.13;67.74;99867.59;5039586;28;45445;-67
2022/11/18 11:42:18;;;;;;;;;2.00;2.00;;;;;13.17;67.23;99870.91;5058412;28;45434;-64
2022/11/18 11:44:50;;;;;;;;;0.00;0.00;;;;;13.18;67.65;99864.59;5066503;28;46175;-62
2022/11/18 11:50:15;;;;;;;;;4.00;1.00;;;;;13.37;67.41;99854.19;5058944;28;45407;-57
2022/11/18 11:53:02;;;;;;;;;1.33;1.33;;;;;13.40;67.50;99856.59;5057391;28;45403;-57
2022/11/18 11:56:12;;;;;;;;;1.00;1.00;;;;;13.38;66.55;99863.91;5062650;28;46159;-59
2022/11/18 11:59:04;;;;;;;;;0.00;0.00;;;;;13.40;66.02;99867.28;5052354;28;45344;-59
2022/11/18 12:01:39;;;;;;;;;0.67;0.67;;;;;13.33;67.64;99863.41;5076454;28;45589;-59
2022/11/18 12:04:33;;;;;;;;;1.33;0.00;;;;;13.29;67.54;99867.31;5061230;28;45611;-61
2022/11/18 12:07:00;;;;;;;;;2.00;1.00;;;;;13.27;67.02;99855.88;5058965;28;45726;-60
2022/11/18 12:09:42;;;;;;;;;1.00;1.00;;;;;13.24;66.43;99861.47;5058627;28;45350;-65